sensor_id;sensor_type;location;lat;lon;timestamp;temperature;humidity
62573;DHT22;48626;51.678;5.806;2022-07-25T00:00:36;23.20;70.10
62573;DHT22;48626;51.678;5.806;2022-07-25T00:03:02;23.20;70.50
62573;DHT22;48626;51.678;5.806;2022-07-25T00:05:28;23.20;70.80
62573;DHT22;48626;51.678;5.806;2022-07-25T00:07:54;23.10;71.10
62573;DHT22;48626;51.678;5.806;2022-07-25T00:10:19;23.10;71.60
62573;DHT22;48626;51.678;5.806;2022-07-25T00:12:45;23.10;71.80
62573;DHT22;48626;51.678;5.806;2022-07-25T00:15:12;23.10;72.00
62573;DHT22;48626;51.678;5.806;2022-07-25T00:17:38;23.10;72.20
62573;DHT22;48626;51.678;5.806;2022-07-25T00:20:05;23.00;72.00
62573;DHT22;48626;51.678;5.806;2022-07-25T00:22:31;23.00;71.90
62573;DHT22;48626;51.678;5.806;2022-07-25T00:24:57;22.90;71.90
62573;DHT22;48626;51.678;5.806;2022-07-25T00:27:23;22.80;71.80
62573;DHT22;48626;51.678;5.806;2022-07-25T00:29:48;22.80;73.00
62573;DHT22;48626;51.678;5.806;2022-07-25T00:32:14;22.70;72.20
62573;DHT22;48626;51.678;5.806;2022-07-25T00:34:40;22.70;72.60
62573;DHT22;48626;51.678;5.806;2022-07-25T00:37:06;22.60;72.80
62573;DHT22;48626;51.678;5.806;2022-07-25T00:39:31;22.50;72.80
62573;DHT22;48626;51.678;5.806;2022-07-25T00:41:57;22.50;73.20
62573;DHT22;48626;51.678;5.806;2022-07-25T00:44:27;22.50;73.50
62573;DHT22;48626;51.678;5.806;2022-07-25T00:46:54;22.50;73.50
62573;DHT22;48626;51.678;5.806;2022-07-25T00:49:20;22.50;73.60
62573;DHT22;48626;51.678;5.806;2022-07-25T00:51:46;22.50;73.60
62573;DHT22;48626;51.678;5.806;2022-07-25T00:54:12;22.50;73.90
62573;DHT22;48626;51.678;5.806;2022-07-25T00:56:38;22.50;74.00
62573;DHT22;48626;51.678;5.806;2022-07-25T00:59:04;22.50;73.90
62573;DHT22;48626;51.678;5.806;2022-07-25T01:01:29;22.50;74.00
62573;DHT22;48626;51.678;5.806;2022-07-25T01:03:55;22.50;73.70
62573;DHT22;48626;51.678;5.806;2022-07-25T01:06:21;22.50;74.00
62573;DHT22;48626;51.678;5.806;2022-07-25T01:08:48;22.40;74.00
62573;DHT22;48626;51.678;5.806;2022-07-25T01:11:14;22.40;74.20
62573;DHT22;48626;51.678;5.806;2022-07-25T01:13:41;22.40;74.30
62573;DHT22;48626;51.678;5.806;2022-07-25T01:16:06;22.30;74.40
62573;DHT22;48626;51.678;5.806;2022-07-25T01:18:32;22.30;74.50
62573;DHT22;48626;51.678;5.806;2022-07-25T01:20:59;22.20;74.70
62573;DHT22;48626;51.678;5.806;2022-07-25T01:23:26;22.20;74.70
62573;DHT22;48626;51.678;5.806;2022-07-25T01:25:51;22.20;74.60
62573;DHT22;48626;51.678;5.806;2022-07-25T01:28:17;22.10;74.70
62573;DHT22;48626;51.678;5.806;2022-07-25T01:30:43;22.10;74.90
62573;DHT22;48626;51.678;5.806;2022-07-25T01:33:09;22.10;75.00
62573;DHT22;48626;51.678;5.806;2022-07-25T01:35:34;22.10;75.30
62573;DHT22;48626;51.678;5.806;2022-07-25T01:38:00;22.10;75.20
62573;DHT22;48626;51.678;5.806;2022-07-25T01:40:26;22.10;75.00
62573;DHT22;48626;51.678;5.806;2022-07-25T01:42:51;22.10;75.20
62573;DHT22;48626;51.678;5.806;2022-07-25T01:45:17;22.10;75.10
62573;DHT22;48626;51.678;5.806;2022-07-25T01:47:43;22.10;75.00
62573;DHT22;48626;51.678;5.806;2022-07-25T01:50:08;22.00;75.30
62573;DHT22;48626;51.678;5.806;2022-07-25T01:52:36;22.00;75.70
62573;DHT22;48626;51.678;5.806;2022-07-25T01:55:01;22.00;75.80
62573;DHT22;48626;51.678;5.806;2022-07-25T01:57:28;22.00;75.60
62573;DHT22;48626;51.678;5.806;2022-07-25T01:59:54;22.00;75.70
62573;DHT22;48626;51.678;5.806;2022-07-25T02:02:19;21.90;75.70
62573;DHT22;48626;51.678;5.806;2022-07-25T02:04:45;21.90;75.70
62573;DHT22;48626;51.678;5.806;2022-07-25T02:07:11;21.90;75.50
62573;DHT22;48626;51.678;5.806;2022-07-25T02:09:36;21.90;75.50
62573;DHT22;48626;51.678;5.806;2022-07-25T02:12:02;21.90;75.60
62573;DHT22;48626;51.678;5.806;2022-07-25T02:14:28;21.90;75.30
62573;DHT22;48626;51.678;5.806;2022-07-25T02:16:53;21.80;75.20
62573;DHT22;48626;51.678;5.806;2022-07-25T02:19:19;21.80;75.10
62573;DHT22;48626;51.678;5.806;2022-07-25T02:21:45;21.80;75.00
62573;DHT22;48626;51.678;5.806;2022-07-25T02:24:11;21.80;75.20
62573;DHT22;48626;51.678;5.806;2022-07-25T02:26:36;21.70;75.30
62573;DHT22;48626;51.678;5.806;2022-07-25T02:29:02;21.70;75.50
62573;DHT22;48626;51.678;5.806;2022-07-25T02:31:27;21.70;75.50
62573;DHT22;48626;51.678;5.806;2022-07-25T02:33:53;21.70;75.70
62573;DHT22;48626;51.678;5.806;2022-07-25T02:36:19;21.70;75.70
62573;DHT22;48626;51.678;5.806;2022-07-25T02:38:44;21.70;75.60
62573;DHT22;48626;51.678;5.806;2022-07-25T02:41:10;21.70;75.50
62573;DHT22;48626;51.678;5.806;2022-07-25T02:43:36;21.70;76.70
62573;DHT22;48626;51.678;5.806;2022-07-25T02:46:02;21.60;75.80
62573;DHT22;48626;51.678;5.806;2022-07-25T02:48:28;21.70;75.80
62573;DHT22;48626;51.678;5.806;2022-07-25T02:50:53;21.60;75.80
62573;DHT22;48626;51.678;5.806;2022-07-25T02:53:19;21.60;76.00
62573;DHT22;48626;51.678;5.806;2022-07-25T02:55:45;21.60;75.90
62573;DHT22;48626;51.678;5.806;2022-07-25T02:58:10;21.50;76.00
62573;DHT22;48626;51.678;5.806;2022-07-25T03:00:36;21.50;76.20
62573;DHT22;48626;51.678;5.806;2022-07-25T03:03:02;21.50;76.30
62573;DHT22;48626;51.678;5.806;2022-07-25T03:05:27;21.50;76.10
62573;DHT22;48626;51.678;5.806;2022-07-25T03:07:53;21.50;76.00
62573;DHT22;48626;51.678;5.806;2022-07-25T03:10:19;21.50;76.10
62573;DHT22;48626;51.678;5.806;2022-07-25T03:12:44;21.40;76.00
62573;DHT22;48626;51.678;5.806;2022-07-25T03:15:12;21.30;76.00
62573;DHT22;48626;51.678;5.806;2022-07-25T03:17:38;21.30;75.90
62573;DHT22;48626;51.678;5.806;2022-07-25T03:20:05;21.30;76.00
62573;DHT22;48626;51.678;5.806;2022-07-25T03:22:31;21.30;76.10
62573;DHT22;48626;51.678;5.806;2022-07-25T03:24:57;21.20;76.10
62573;DHT22;48626;51.678;5.806;2022-07-25T03:27:22;21.20;76.30
62573;DHT22;48626;51.678;5.806;2022-07-25T03:29:48;21.20;76.20
62573;DHT22;48626;51.678;5.806;2022-07-25T03:32:14;21.20;76.40
62573;DHT22;48626;51.678;5.806;2022-07-25T03:34:40;21.20;76.40
62573;DHT22;48626;51.678;5.806;2022-07-25T03:37:05;21.20;76.50
62573;DHT22;48626;51.678;5.806;2022-07-25T03:39:31;21.20;76.70
62573;DHT22;48626;51.678;5.806;2022-07-25T03:41:57;21.30;76.80
62573;DHT22;48626;51.678;5.806;2022-07-25T03:44:24;21.30;76.40
62573;DHT22;48626;51.678;5.806;2022-07-25T03:46:50;21.30;76.30
62573;DHT22;48626;51.678;5.806;2022-07-25T03:49:16;21.20;75.70
62573;DHT22;48626;51.678;5.806;2022-07-25T03:51:42;21.20;75.70
62573;DHT22;48626;51.678;5.806;2022-07-25T03:54:08;21.20;75.80
62573;DHT22;48626;51.678;5.806;2022-07-25T03:56:40;21.20;76.20
62573;DHT22;48626;51.678;5.806;2022-07-25T03:59:07;21.10;76.00
62573;DHT22;48626;51.678;5.806;2022-07-25T04:01:33;21.20;76.00
62573;DHT22;48626;51.678;5.806;2022-07-25T04:04:00;21.20;76.00
62573;DHT22;48626;51.678;5.806;2022-07-25T04:06:25;21.20;75.90
62573;DHT22;48626;51.678;5.806;2022-07-25T04:08:52;21.20;75.80
62573;DHT22;48626;51.678;5.806;2022-07-25T04:11:18;21.20;75.80
62573;DHT22;48626;51.678;5.806;2022-07-25T04:13:43;21.20;75.70
62573;DHT22;48626;51.678;5.806;2022-07-25T04:16:09;21.20;75.70
62573;DHT22;48626;51.678;5.806;2022-07-25T04:18:36;21.30;75.80
62573;DHT22;48626;51.678;5.806;2022-07-25T04:21:03;21.30;75.50
62573;DHT22;48626;51.678;5.806;2022-07-25T04:23:29;21.40;75.70
62573;DHT22;48626;51.678;5.806;2022-07-25T04:25:56;21.40;75.50
62573;DHT22;48626;51.678;5.806;2022-07-25T04:28:25;21.40;75.70
62573;DHT22;48626;51.678;5.806;2022-07-25T04:30:51;21.40;75.90
62573;DHT22;48626;51.678;5.806;2022-07-25T04:33:18;21.40;75.60
62573;DHT22;48626;51.678;5.806;2022-07-25T04:35:44;21.40;75.40
62573;DHT22;48626;51.678;5.806;2022-07-25T04:38:10;21.50;75.60
62573;DHT22;48626;51.678;5.806;2022-07-25T04:40:36;21.50;75.50
62573;DHT22;48626;51.678;5.806;2022-07-25T04:43:03;21.50;75.60
62573;DHT22;48626;51.678;5.806;2022-07-25T04:45:29;21.60;75.70
62573;DHT22;48626;51.678;5.806;2022-07-25T04:47:55;21.70;75.20
62573;DHT22;48626;51.678;5.806;2022-07-25T04:50:21;21.80;75.30
62573;DHT22;48626;51.678;5.806;2022-07-25T04:52:47;21.80;74.90
62573;DHT22;48626;51.678;5.806;2022-07-25T04:55:13;21.90;74.70
62573;DHT22;48626;51.678;5.806;2022-07-25T04:57:38;21.90;74.40
62573;DHT22;48626;51.678;5.806;2022-07-25T05:00:05;22.00;74.10
62573;DHT22;48626;51.678;5.806;2022-07-25T05:02:32;22.10;74.10
62573;DHT22;48626;51.678;5.806;2022-07-25T05:04:58;22.20;73.80
62573;DHT22;48626;51.678;5.806;2022-07-25T05:07:24;22.20;73.10
62573;DHT22;48626;51.678;5.806;2022-07-25T05:09:50;22.30;73.10
62573;DHT22;48626;51.678;5.806;2022-07-25T05:12:16;22.30;72.40
62573;DHT22;48626;51.678;5.806;2022-07-25T05:14:41;22.40;72.50
62573;DHT22;48626;51.678;5.806;2022-07-25T05:17:07;22.50;72.40
62573;DHT22;48626;51.678;5.806;2022-07-25T05:19:33;22.50;72.40
62573;DHT22;48626;51.678;5.806;2022-07-25T05:21:59;22.60;72.50
62573;DHT22;48626;51.678;5.806;2022-07-25T05:24:25;22.60;72.10
62573;DHT22;48626;51.678;5.806;2022-07-25T05:26:51;22.70;72.00
62573;DHT22;48626;51.678;5.806;2022-07-25T05:29:17;22.70;71.90
62573;DHT22;48626;51.678;5.806;2022-07-25T05:31:42;22.80;71.90
62573;DHT22;48626;51.678;5.806;2022-07-25T05:34:08;22.90;71.90
62573;DHT22;48626;51.678;5.806;2022-07-25T05:36:34;23.00;72.10
62573;DHT22;48626;51.678;5.806;2022-07-25T05:39:00;23.10;71.70
62573;DHT22;48626;51.678;5.806;2022-07-25T05:41:26;23.20;71.80
62573;DHT22;48626;51.678;5.806;2022-07-25T05:43:52;23.20;71.60
62573;DHT22;48626;51.678;5.806;2022-07-25T05:46:17;23.20;70.60
62573;DHT22;48626;51.678;5.806;2022-07-25T05:48:43;23.30;70.50
62573;DHT22;48626;51.678;5.806;2022-07-25T05:51:09;23.30;70.80
62573;DHT22;48626;51.678;5.806;2022-07-25T05:53:35;23.30;70.70
62573;DHT22;48626;51.678;5.806;2022-07-25T05:56:00;23.40;69.90
62573;DHT22;48626;51.678;5.806;2022-07-25T05:58:26;23.40;69.80
62573;DHT22;48626;51.678;5.806;2022-07-25T06:00:52;23.40;70.10
62573;DHT22;48626;51.678;5.806;2022-07-25T06:03:18;23.50;70.30
62573;DHT22;48626;51.678;5.806;2022-07-25T06:05:44;23.50;69.30
62573;DHT22;48626;51.678;5.806;2022-07-25T06:08:11;23.60;68.50
62573;DHT22;48626;51.678;5.806;2022-07-25T06:10:38;23.60;69.00
62573;DHT22;48626;51.678;5.806;2022-07-25T06:13:03;23.70;67.90
62573;DHT22;48626;51.678;5.806;2022-07-25T06:15:29;23.70;68.30
62573;DHT22;48626;51.678;5.806;2022-07-25T06:17:55;23.70;68.10
62573;DHT22;48626;51.678;5.806;2022-07-25T06:20:21;23.80;67.70
62573;DHT22;48626;51.678;5.806;2022-07-25T06:22:46;23.80;66.10
62573;DHT22;48626;51.678;5.806;2022-07-25T06:25:12;23.80;66.90
62573;DHT22;48626;51.678;5.806;2022-07-25T06:27:38;23.80;67.90
62573;DHT22;48626;51.678;5.806;2022-07-25T06:30:04;23.90;67.70
62573;DHT22;48626;51.678;5.806;2022-07-25T06:32:30;23.90;66.80
62573;DHT22;48626;51.678;5.806;2022-07-25T06:34:56;23.90;66.60
62573;DHT22;48626;51.678;5.806;2022-07-25T06:37:22;23.90;66.90
62573;DHT22;48626;51.678;5.806;2022-07-25T06:39:47;23.90;66.50
62573;DHT22;48626;51.678;5.806;2022-07-25T06:42:13;23.90;66.30
62573;DHT22;48626;51.678;5.806;2022-07-25T06:44:39;23.90;67.20
62573;DHT22;48626;51.678;5.806;2022-07-25T06:47:04;23.90;66.50
62573;DHT22;48626;51.678;5.806;2022-07-25T06:49:30;23.90;66.50
62573;DHT22;48626;51.678;5.806;2022-07-25T06:51:56;23.90;65.90
62573;DHT22;48626;51.678;5.806;2022-07-25T06:54:22;23.90;65.70
62573;DHT22;48626;51.678;5.806;2022-07-25T06:56:48;23.90;66.20
62573;DHT22;48626;51.678;5.806;2022-07-25T06:59:13;23.90;65.20
62573;DHT22;48626;51.678;5.806;2022-07-25T07:01:39;24.00;65.80
62573;DHT22;48626;51.678;5.806;2022-07-25T07:04:05;24.10;64.70
62573;DHT22;48626;51.678;5.806;2022-07-25T07:06:31;24.10;64.50
62573;DHT22;48626;51.678;5.806;2022-07-25T07:08:56;24.10;64.90
62573;DHT22;48626;51.678;5.806;2022-07-25T07:11:22;24.30;64.10
62573;DHT22;48626;51.678;5.806;2022-07-25T07:13:48;24.40;64.30
62573;DHT22;48626;51.678;5.806;2022-07-25T07:16:13;24.40;64.50
62573;DHT22;48626;51.678;5.806;2022-07-25T07:18:39;24.50;65.20
62573;DHT22;48626;51.678;5.806;2022-07-25T07:21:05;24.50;62.80
62573;DHT22;48626;51.678;5.806;2022-07-25T07:23:31;24.50;63.80
62573;DHT22;48626;51.678;5.806;2022-07-25T07:25:56;24.50;63.60
62573;DHT22;48626;51.678;5.806;2022-07-25T07:28:22;24.50;63.90
62573;DHT22;48626;51.678;5.806;2022-07-25T07:30:48;24.50;63.40
62573;DHT22;48626;51.678;5.806;2022-07-25T07:33:13;24.50;63.60
62573;DHT22;48626;51.678;5.806;2022-07-25T07:35:42;24.40;63.50
62573;DHT22;48626;51.678;5.806;2022-07-25T07:38:07;24.40;63.00
62573;DHT22;48626;51.678;5.806;2022-07-25T07:40:33;24.40;62.60
62573;DHT22;48626;51.678;5.806;2022-07-25T07:42:59;24.30;62.40
62573;DHT22;48626;51.678;5.806;2022-07-25T07:45:28;24.30;63.10
62573;DHT22;48626;51.678;5.806;2022-07-25T07:47:54;24.40;64.70
62573;DHT22;48626;51.678;5.806;2022-07-25T07:50:22;24.50;65.10
62573;DHT22;48626;51.678;5.806;2022-07-25T07:52:49;24.60;64.40
62573;DHT22;48626;51.678;5.806;2022-07-25T07:55:15;24.90;63.40
62573;DHT22;48626;51.678;5.806;2022-07-25T07:57:59;25.00;62.50
62573;DHT22;48626;51.678;5.806;2022-07-25T08:00:26;25.20;62.60
62573;DHT22;48626;51.678;5.806;2022-07-25T08:02:54;25.10;62.10
62573;DHT22;48626;51.678;5.806;2022-07-25T08:05:31;25.10;62.40
62573;DHT22;48626;51.678;5.806;2022-07-25T08:07:57;25.10;62.80
62573;DHT22;48626;51.678;5.806;2022-07-25T08:10:29;25.10;63.40
62573;DHT22;48626;51.678;5.806;2022-07-25T08:12:55;25.10;60.90
62573;DHT22;48626;51.678;5.806;2022-07-25T08:15:22;25.00;62.70
62573;DHT22;48626;51.678;5.806;2022-07-25T08:17:48;25.00;62.80
62573;DHT22;48626;51.678;5.806;2022-07-25T08:20:18;25.10;61.80
62573;DHT22;48626;51.678;5.806;2022-07-25T08:22:45;25.20;63.10
62573;DHT22;48626;51.678;5.806;2022-07-25T08:25:18;25.20;61.70
62573;DHT22;48626;51.678;5.806;2022-07-25T08:27:45;25.40;62.40
62573;DHT22;48626;51.678;5.806;2022-07-25T08:30:12;25.40;62.90
62573;DHT22;48626;51.678;5.806;2022-07-25T08:32:53;25.70;62.40
62573;DHT22;48626;51.678;5.806;2022-07-25T08:35:20;26.00;63.00
62573;DHT22;48626;51.678;5.806;2022-07-25T08:37:46;26.10;63.50
62573;DHT22;48626;51.678;5.806;2022-07-25T08:40:13;26.10;62.50
62573;DHT22;48626;51.678;5.806;2022-07-25T08:42:40;26.20;61.60
62573;DHT22;48626;51.678;5.806;2022-07-25T08:45:07;26.10;61.00
62573;DHT22;48626;51.678;5.806;2022-07-25T08:47:34;26.40;61.90
62573;DHT22;48626;51.678;5.806;2022-07-25T08:50:02;26.60;62.10
62573;DHT22;48626;51.678;5.806;2022-07-25T08:52:29;27.00;61.10
62573;DHT22;48626;51.678;5.806;2022-07-25T08:54:55;27.10;58.80
62573;DHT22;48626;51.678;5.806;2022-07-25T08:57:21;27.10;58.30
62573;DHT22;48626;51.678;5.806;2022-07-25T08:59:47;27.20;58.90
62573;DHT22;48626;51.678;5.806;2022-07-25T09:02:13;27.20;59.50
62573;DHT22;48626;51.678;5.806;2022-07-25T09:04:39;27.40;59.20
62573;DHT22;48626;51.678;5.806;2022-07-25T09:07:05;27.40;59.20
62573;DHT22;48626;51.678;5.806;2022-07-25T09:09:37;27.40;57.90
62573;DHT22;48626;51.678;5.806;2022-07-25T09:12:04;27.30;58.30
62573;DHT22;48626;51.678;5.806;2022-07-25T09:14:39;27.30;57.30
62573;DHT22;48626;51.678;5.806;2022-07-25T09:17:06;27.20;57.30
62573;DHT22;48626;51.678;5.806;2022-07-25T09:19:32;27.30;59.30
62573;DHT22;48626;51.678;5.806;2022-07-25T09:21:59;27.50;58.60
62573;DHT22;48626;51.678;5.806;2022-07-25T09:24:25;27.60;59.10
62573;DHT22;48626;51.678;5.806;2022-07-25T09:26:54;27.90;58.60
62573;DHT22;48626;51.678;5.806;2022-07-25T09:29:31;28.00;57.70
62573;DHT22;48626;51.678;5.806;2022-07-25T09:31:58;28.20;57.90
62573;DHT22;48626;51.678;5.806;2022-07-25T09:34:39;28.40;56.60
62573;DHT22;48626;51.678;5.806;2022-07-25T09:37:07;28.50;55.20
62573;DHT22;48626;51.678;5.806;2022-07-25T09:39:34;28.40;54.70
62573;DHT22;48626;51.678;5.806;2022-07-25T09:42:00;28.40;56.20
62573;DHT22;48626;51.678;5.806;2022-07-25T09:44:26;28.60;56.40
62573;DHT22;48626;51.678;5.806;2022-07-25T09:46:55;28.60;55.80
62573;DHT22;48626;51.678;5.806;2022-07-25T09:49:25;28.70;56.00
62573;DHT22;48626;51.678;5.806;2022-07-25T09:51:51;28.50;55.50
62573;DHT22;48626;51.678;5.806;2022-07-25T09:54:18;28.50;56.20
62573;DHT22;48626;51.678;5.806;2022-07-25T09:56:44;28.30;56.30
62573;DHT22;48626;51.678;5.806;2022-07-25T09:59:09;28.20;56.70
62573;DHT22;48626;51.678;5.806;2022-07-25T10:01:47;28.20;56.80
62573;DHT22;48626;51.678;5.806;2022-07-25T10:04:21;28.20;58.00
62573;DHT22;48626;51.678;5.806;2022-07-25T10:07:13;28.30;57.80
62573;DHT22;48626;51.678;5.806;2022-07-25T10:09:47;28.40;55.70
62573;DHT22;48626;51.678;5.806;2022-07-25T10:12:17;28.40;55.20
62573;DHT22;48626;51.678;5.806;2022-07-25T10:15:06;28.60;53.40
62573;DHT22;48626;51.678;5.806;2022-07-25T10:17:33;28.80;55.10
62573;DHT22;48626;51.678;5.806;2022-07-25T10:19:59;28.90;54.50
62573;DHT22;48626;51.678;5.806;2022-07-25T10:22:40;29.00;54.70
62573;DHT22;48626;51.678;5.806;2022-07-25T10:25:12;29.00;53.70
62573;DHT22;48626;51.678;5.806;2022-07-25T10:27:47;29.00;53.90
62573;DHT22;48626;51.678;5.806;2022-07-25T10:30:36;29.10;52.00
62573;DHT22;48626;51.678;5.806;2022-07-25T10:33:10;29.30;51.70
62573;DHT22;48626;51.678;5.806;2022-07-25T10:35:36;29.40;51.80
62573;DHT22;48626;51.678;5.806;2022-07-25T10:38:04;29.70;52.80
62573;DHT22;48626;51.678;5.806;2022-07-25T10:40:45;29.70;52.00
62573;DHT22;48626;51.678;5.806;2022-07-25T10:43:17;30.20;53.50
62573;DHT22;48626;51.678;5.806;2022-07-25T10:45:52;30.40;52.00
62573;DHT22;48626;51.678;5.806;2022-07-25T10:48:31;30.90;53.30
62573;DHT22;48626;51.678;5.806;2022-07-25T10:53:42;30.90;47.80
62573;DHT22;48626;51.678;5.806;2022-07-25T10:56:17;30.80;51.20
62573;DHT22;48626;51.678;5.806;2022-07-25T10:58:51;31.10;51.30
62573;DHT22;48626;51.678;5.806;2022-07-25T11:01:23;31.20;49.80
62573;DHT22;48626;51.678;5.806;2022-07-25T11:03:51;31.10;47.50
62573;DHT22;48626;51.678;5.806;2022-07-25T11:06:37;30.90;49.20
62573;DHT22;48626;51.678;5.806;2022-07-25T11:09:17;31.30;47.50
62573;DHT22;48626;51.678;5.806;2022-07-25T11:11:45;31.70;46.30
62573;DHT22;48626;51.678;5.806;2022-07-25T11:14:36;31.50;46.80
62573;DHT22;48626;51.678;5.806;2022-07-25T11:17:16;31.40;47.50
62573;DHT22;48626;51.678;5.806;2022-07-25T11:19:59;31.30;48.00
62573;DHT22;48626;51.678;5.806;2022-07-25T11:22:26;31.00;47.80
62573;DHT22;48626;51.678;5.806;2022-07-25T11:24:52;30.80;48.50
62573;DHT22;48626;51.678;5.806;2022-07-25T11:29:47;30.60;49.40
62573;DHT22;48626;51.678;5.806;2022-07-25T11:32:13;30.40;48.10
62573;DHT22;48626;51.678;5.806;2022-07-25T11:34:48;30.30;48.60
62573;DHT22;48626;51.678;5.806;2022-07-25T11:37:15;30.20;46.50
62573;DHT22;48626;51.678;5.806;2022-07-25T11:39:43;30.00;47.50
62573;DHT22;48626;51.678;5.806;2022-07-25T11:42:15;30.00;47.40
62573;DHT22;48626;51.678;5.806;2022-07-25T11:44:51;29.80;48.00
62573;DHT22;48626;51.678;5.806;2022-07-25T11:47:35;29.70;47.00
62573;DHT22;48626;51.678;5.806;2022-07-25T11:50:03;29.50;47.30
62573;DHT22;48626;51.678;5.806;2022-07-25T11:52:32;29.40;49.30
62573;DHT22;48626;51.678;5.806;2022-07-25T11:55:10;29.70;49.20
62573;DHT22;48626;51.678;5.806;2022-07-25T11:57:41;30.10;47.00
62573;DHT22;48626;51.678;5.806;2022-07-25T12:00:19;30.20;49.60
62573;DHT22;48626;51.678;5.806;2022-07-25T12:02:46;29.90;46.40
62573;DHT22;48626;51.678;5.806;2022-07-25T12:05:16;30.10;47.50
62573;DHT22;48626;51.678;5.806;2022-07-25T12:07:48;30.70;48.00
62573;DHT22;48626;51.678;5.806;2022-07-25T12:10:16;31.30;44.90
62573;DHT22;48626;51.678;5.806;2022-07-25T12:12:55;31.80;43.60
62573;DHT22;48626;51.678;5.806;2022-07-25T12:15:24;32.30;43.40
62573;DHT22;48626;51.678;5.806;2022-07-25T12:17:51;31.90;41.90
62573;DHT22;48626;51.678;5.806;2022-07-25T12:20:19;31.60;43.50
62573;DHT22;48626;51.678;5.806;2022-07-25T12:22:46;32.00;45.50
62573;DHT22;48626;51.678;5.806;2022-07-25T12:25:12;31.90;43.20
62573;DHT22;48626;51.678;5.806;2022-07-25T12:27:38;31.60;43.00
62573;DHT22;48626;51.678;5.806;2022-07-25T12:30:05;31.20;42.50
62573;DHT22;48626;51.678;5.806;2022-07-25T12:32:31;30.80;44.00
62573;DHT22;48626;51.678;5.806;2022-07-25T12:34:57;30.60;44.30
62573;DHT22;48626;51.678;5.806;2022-07-25T12:37:24;30.50;45.30
62573;DHT22;48626;51.678;5.806;2022-07-25T12:39:51;30.80;46.80
62573;DHT22;48626;51.678;5.806;2022-07-25T12:42:17;30.80;45.50
62573;DHT22;48626;51.678;5.806;2022-07-25T12:44:42;30.40;44.00
62573;DHT22;48626;51.678;5.806;2022-07-25T12:47:08;30.00;45.00
62573;DHT22;48626;51.678;5.806;2022-07-25T12:49:34;29.80;46.00
62573;DHT22;48626;51.678;5.806;2022-07-25T12:51:59;30.50;47.50
62573;DHT22;48626;51.678;5.806;2022-07-25T12:54:25;31.20;46.30
62573;DHT22;48626;51.678;5.806;2022-07-25T12:56:50;31.60;48.60
62573;DHT22;48626;51.678;5.806;2022-07-25T12:59:16;31.00;44.20
62573;DHT22;48626;51.678;5.806;2022-07-25T13:01:42;30.40;44.20
62573;DHT22;48626;51.678;5.806;2022-07-25T13:04:07;29.90;44.80
62573;DHT22;48626;51.678;5.806;2022-07-25T13:06:34;29.50;46.50
62573;DHT22;48626;51.678;5.806;2022-07-25T13:09:00;29.00;46.20
62573;DHT22;48626;51.678;5.806;2022-07-25T13:11:26;28.70;47.10
62573;DHT22;48626;51.678;5.806;2022-07-25T13:13:51;28.50;48.20
62573;DHT22;48626;51.678;5.806;2022-07-25T13:16:17;28.30;46.60
62573;DHT22;48626;51.678;5.806;2022-07-25T13:18:43;28.10;47.70
62573;DHT22;48626;51.678;5.806;2022-07-25T13:21:09;28.00;48.10
62573;DHT22;48626;51.678;5.806;2022-07-25T13:23:35;27.90;48.90
62573;DHT22;48626;51.678;5.806;2022-07-25T13:26:01;27.60;49.70
62573;DHT22;48626;51.678;5.806;2022-07-25T13:28:27;27.60;49.20
62573;DHT22;48626;51.678;5.806;2022-07-25T13:30:53;27.70;50.40
62573;DHT22;48626;51.678;5.806;2022-07-25T13:33:19;27.70;51.00
62573;DHT22;48626;51.678;5.806;2022-07-25T13:35:44;27.80;49.80
62573;DHT22;48626;51.678;5.806;2022-07-25T13:38:10;28.00;51.20
62573;DHT22;48626;51.678;5.806;2022-07-25T13:40:39;28.60;49.50
62573;DHT22;48626;51.678;5.806;2022-07-25T13:43:10;29.00;52.10
62573;DHT22;48626;51.678;5.806;2022-07-25T13:45:36;29.10;46.90
62573;DHT22;48626;51.678;5.806;2022-07-25T13:48:02;29.60;50.00
62573;DHT22;48626;51.678;5.806;2022-07-25T13:50:28;30.50;43.50
62573;DHT22;48626;51.678;5.806;2022-07-25T13:52:54;30.90;46.30
62573;DHT22;48626;51.678;5.806;2022-07-25T13:55:22;31.90;46.70
62573;DHT22;48626;51.678;5.806;2022-07-25T13:57:48;32.70;41.90
62573;DHT22;48626;51.678;5.806;2022-07-25T14:00:13;33.10;41.10
62573;DHT22;48626;51.678;5.806;2022-07-25T14:02:39;33.80;41.00
62573;DHT22;48626;51.678;5.806;2022-07-25T14:05:05;34.10;40.30
62573;DHT22;48626;51.678;5.806;2022-07-25T14:07:33;33.20;35.70
62573;DHT22;48626;51.678;5.806;2022-07-25T14:09:58;33.00;38.60
62573;DHT22;48626;51.678;5.806;2022-07-25T14:12:24;32.40;38.30
62573;DHT22;48626;51.678;5.806;2022-07-25T14:14:50;31.60;39.60
62573;DHT22;48626;51.678;5.806;2022-07-25T14:17:15;30.90;39.90
62573;DHT22;48626;51.678;5.806;2022-07-25T14:19:41;30.10;40.90
62573;DHT22;48626;51.678;5.806;2022-07-25T14:22:07;29.60;44.70
62573;DHT22;48626;51.678;5.806;2022-07-25T14:24:32;29.40;44.90
62573;DHT22;48626;51.678;5.806;2022-07-25T14:26:58;29.30;44.30
62573;DHT22;48626;51.678;5.806;2022-07-25T14:29:25;29.30;44.70
62573;DHT22;48626;51.678;5.806;2022-07-25T14:31:51;30.00;45.10
62573;DHT22;48626;51.678;5.806;2022-07-25T14:34:17;30.40;45.00
62573;DHT22;48626;51.678;5.806;2022-07-25T14:36:44;30.70;44.00
62573;DHT22;48626;51.678;5.806;2022-07-25T14:39:12;31.00;43.00
62573;DHT22;48626;51.678;5.806;2022-07-25T14:41:38;32.20;45.10
62573;DHT22;48626;51.678;5.806;2022-07-25T14:44:04;32.60;43.00
62573;DHT22;48626;51.678;5.806;2022-07-25T14:46:29;32.00;41.00
62573;DHT22;48626;51.678;5.806;2022-07-25T14:48:55;32.10;40.70
62573;DHT22;48626;51.678;5.806;2022-07-25T14:51:22;32.40;38.70
62573;DHT22;48626;51.678;5.806;2022-07-25T14:53:48;32.60;39.40
62573;DHT22;48626;51.678;5.806;2022-07-25T14:56:14;33.20;40.40
62573;DHT22;48626;51.678;5.806;2022-07-25T14:58:39;32.90;35.90
62573;DHT22;48626;51.678;5.806;2022-07-25T15:01:05;31.90;38.00
62573;DHT22;48626;51.678;5.806;2022-07-25T15:03:33;31.50;38.80
62573;DHT22;48626;51.678;5.806;2022-07-25T15:05:59;30.80;37.60
62573;DHT22;48626;51.678;5.806;2022-07-25T15:08:25;30.00;40.20
62573;DHT22;48626;51.678;5.806;2022-07-25T15:10:50;30.10;41.10
62573;DHT22;48626;51.678;5.806;2022-07-25T15:13:16;30.30;42.50
62573;DHT22;48626;51.678;5.806;2022-07-25T15:15:42;30.30;40.20
62573;DHT22;48626;51.678;5.806;2022-07-25T15:18:07;30.30;40.40
62573;DHT22;48626;51.678;5.806;2022-07-25T15:20:33;30.00;40.50
62573;DHT22;48626;51.678;5.806;2022-07-25T15:22:59;30.50;40.60
62573;DHT22;48626;51.678;5.806;2022-07-25T15:25:25;31.00;40.10
62573;DHT22;48626;51.678;5.806;2022-07-25T15:27:50;30.60;41.60
62573;DHT22;48626;51.678;5.806;2022-07-25T15:30:16;30.40;41.50
62573;DHT22;48626;51.678;5.806;2022-07-25T15:32:42;30.80;40.40
62573;DHT22;48626;51.678;5.806;2022-07-25T15:35:08;30.50;38.70